Time;durP1;ratioP1;P1;durP2;ratioP2;P2;SDS_P1;SDS_P2;PMS_P1;PMS_P2;Temp;Humidity;BMP_temperature;BMP_pressure;BME280_temperature;BME280_humidity;BME280_pressure;Samples;Min_cycle;Max_cycle;Signal;HPM_P1;HPM_P2
2024/01/08 00:01:47;;;;;;;0.38;0.30;;;22.30;41.60;;;;;;5115683;28;20035;-34
2024/01/08 00:04:14;;;;;;;0.70;0.55;;;22.30;41.60;;;;;;5096390;28;20104;-37
2024/01/08 00:06:40;;;;;;;0.45;0.40;;;22.30;41.60;;;;;;5115765;28;20063;-34
2024/01/08 00:09:06;;;;;;;0.73;0.47;;;22.30;41.60;;;;;;5109609;28;20412;-33
2024/01/08 00:11:32;;;;;;;0.47;0.47;;;22.30;41.60;;;;;;5108764;28;20036;-38
2024/01/08 00:13:58;;;;;;;0.68;0.47;;;22.30;41.60;;;;;;5107744;28;20049;-31
2024/01/08 00:16:25;;;;;;;0.50;0.50;;;22.20;41.60;;;;;;5113903;28;20049;-35
2024/01/08 00:18:51;;;;;;;0.47;0.47;;;22.30;41.70;;;;;;5102814;28;20029;-37
2024/01/08 00:21:18;;;;;;;0.52;0.50;;;22.30;41.60;;;;;;5112724;28;20130;-37
2024/01/08 00:23:44;;;;;;;1.67;0.50;;;22.30;41.60;;;;;;5090640;28;20751;-35
2024/01/08 00:26:11;;;;;;;0.50;0.50;;;22.30;41.60;;;;;;5092732;28;20389;-34
2024/01/08 00:28:37;;;;;;;0.77;0.57;;;22.20;41.60;;;;;;5119334;27;20030;-36
2024/01/08 00:31:03;;;;;;;0.70;0.50;;;22.20;41.60;;;;;;5112419;28;20044;-37
2024/01/08 00:33:29;;;;;;;0.93;0.50;;;22.20;41.60;;;;;;5118937;28;20024;-34
2024/01/08 00:35:56;;;;;;;1.27;0.60;;;22.20;41.60;;;;;;5112554;28;20027;-34
2024/01/08 00:38:22;;;;;;;2.05;0.60;;;22.20;41.60;;;;;;5111607;28;20048;-35
2024/01/08 00:40:48;;;;;;;1.15;0.57;;;22.20;41.60;;;;;;5094732;28;20034;-37
2024/01/08 00:43:14;;;;;;;2.25;0.70;;;22.20;41.70;;;;;;5114782;28;20031;-33
2024/01/08 00:45:40;;;;;;;1.05;0.70;;;22.10;41.70;;;;;;5116637;28;20035;-36
2024/01/08 00:48:07;;;;;;;1.40;0.77;;;22.10;41.80;;;;;;5113662;28;20031;-35
2024/01/08 00:50:33;;;;;;;0.75;0.65;;;22.20;41.60;;;;;;5111718;28;20052;-36
2024/01/08 00:52:59;;;;;;;1.23;0.80;;;22.20;41.50;;;;;;5094412;28;20027;-32
2024/01/08 00:55:25;;;;;;;1.63;0.77;;;22.20;41.60;;;;;;5110390;28;20523;-36
2024/01/08 00:57:52;;;;;;;0.50;0.50;;;22.20;41.50;;;;;;5110887;28;20051;-37
2024/01/08 01:00:18;;;;;;;0.90;0.77;;;22.10;41.50;;;;;;5106289;28;20092;-34
2024/01/08 01:02:44;;;;;;;1.17;0.70;;;22.10;41.50;;;;;;5115309;28;20023;-34
2024/01/08 01:05:10;;;;;;;1.00;0.80;;;22.10;41.50;;;;;;5117410;28;20028;-32
2024/01/08 01:07:37;;;;;;;0.68;0.65;;;22.20;41.50;;;;;;5113198;28;20268;-35
2024/01/08 01:10:03;;;;;;;0.80;0.70;;;22.20;41.50;;;;;;5093276;28;20057;-35
2024/01/08 01:12:30;;;;;;;0.97;0.70;;;22.10;41.50;;;;;;5114563;28;20055;-33
2024/01/08 01:14:56;;;;;;;3.20;0.63;;;22.10;41.60;;;;;;5111841;28;20031;-34
2024/01/08 01:17:23;;;;;;;1.02;0.77;;;22.00;41.70;;;;;;5111102;28;20034;-35
2024/01/08 01:19:49;;;;;;;5.53;0.70;;;22.10;41.80;;;;;;5112248;27;20036;-32
2024/01/08 01:22:16;;;;;;;1.05;0.60;;;22.10;41.80;;;;;;5109666;28;20019;-34
2024/01/08 01:24:42;;;;;;;0.88;0.70;;;22.10;41.70;;;;;;5113071;28;20020;-36
2024/01/08 01:27:09;;;;;;;1.63;0.60;;;22.10;41.70;;;;;;5112345;27;20081;-35
2024/01/08 01:29:35;;;;;;;1.30;0.80;;;22.00;41.70;;;;;;5111487;28;20032;-36
2024/01/08 01:32:02;;;;;;;0.68;0.63;;;22.00;41.70;;;;;;5121270;27;20334;-37
2024/01/08 01:34:28;;;;;;;0.40;0.40;;;22.00;41.70;;;;;;5095185;28;20031;-37
2024/01/08 01:36:55;;;;;;;0.80;0.77;;;22.10;41.70;;;;;;5101932;28;20508;-36
2024/01/08 01:39:21;;;;;;;0.60;0.60;;;22.10;41.70;;;;;;5120695;28;20020;-35
2024/01/08 01:41:50;;;;;;;0.80;0.67;;;22.10;41.80;;;;;;5112160;28;20051;-33
2024/01/08 01:44:17;;;;;;;1.33;0.80;;;22.00;41.70;;;;;;5118290;28;20028;-33
2024/01/08 01:46:47;;;;;;;0.83;0.60;;;22.00;42.30;;;;;;5110552;28;20031;-36
2024/01/08 01:49:14;;;;;;;0.90;0.70;;;22.00;41.80;;;;;;5093242;28;20279;-33
2024/01/08 01:51:48;;;;;;;0.80;0.70;;;22.00;41.80;;;;;;5115292;28;20051;-33
2024/01/08 01:54:16;;;;;;;0.98;0.70;;;22.00;41.70;;;;;;5109757;28;20039;-33
2024/01/08 01:56:42;;;;;;;;;;;22.00;41.70;;;;;;5092069;28;20028;-33
2024/01/08 01:59:08;;;;;;;0.68;0.60;;;22.00;41.80;;;;;;5122322;27;19914;-35
2024/01/08 02:01:37;;;;;;;0.43;0.40;;;21.90;41.80;;;;;;5115336;28;20027;-32
2024/01/08 02:04:04;;;;;;;0.50;0.50;;;21.90;41.90;;;;;;5106281;28;20035;-35
2024/01/08 02:06:30;;;;;;;0.40;0.40;;;22.00;41.80;;;;;;5111019;28;20040;-37
2024/01/08 02:08:57;;;;;;;0.60;0.50;;;22.00;41.80;;;;;;5111958;28;20036;-34
2024/01/08 02:11:23;;;;;;;0.93;0.60;;;22.00;41.70;;;;;;5098054;28;20103;-33
2024/01/08 02:13:50;;;;;;;1.33;0.52;;;21.90;41.80;;;;;;5097016;28;20118;-34
2024/01/08 02:16:19;;;;;;;0.57;0.50;;;21.90;41.90;;;;;;5092127;28;20059;-36
2024/01/08 02:18:46;;;;;;;0.52;0.52;;;21.90;41.90;;;;;;5110675;28;20054;-36
2024/01/08 02:21:12;;;;;;;0.52;0.47;;;22.00;41.90;;;;;;5112162;28;20034;-36
2024/01/08 02:23:38;;;;;;;0.88;0.60;;;22.00;41.80;;;;;;5115095;28;20023;-35
2024/01/08 02:26:05;;;;;;;1.10;0.60;;;21.90;41.80;;;;;;5111467;28;20028;-37
2024/01/08 02:28:32;;;;;;;1.45;0.50;;;21.90;41.90;;;;;;5085798;28;20039;-35
2024/01/08 02:30:58;;;;;;;1.08;0.68;;;21.80;42.20;;;;;;5112612;28;20036;-37
2024/01/08 02:33:24;;;;;;;0.70;0.70;;;21.90;42.20;;;;;;5112698;28;20020;-33
2024/01/08 02:35:51;;;;;;;1.48;0.50;;;21.90;42.10;;;;;;5114147;28;20024;-35
2024/01/08 02:38:17;;;;;;;0.68;0.68;;;21.90;42.00;;;;;;5110020;28;20032;-35
2024/01/08 02:40:44;;;;;;;0.70;0.60;;;21.90;41.90;;;;;;5112142;28;20031;-34
2024/01/08 02:43:10;;;;;;;0.83;0.60;;;21.80;41.90;;;;;;5094429;28;20043;-35
2024/01/08 02:45:36;;;;;;;0.60;0.60;;;21.80;42.00;;;;;;5112482;28;20019;-33
2024/01/08 02:48:03;;;;;;;1.60;0.60;;;21.80;42.00;;;;;;5092552;28;20031;-34
2024/01/08 02:50:29;;;;;;;0.70;0.70;;;21.90;41.90;;;;;;5109242;28;20155;-33
2024/01/08 02:52:55;;;;;;;1.38;0.70;;;21.90;41.80;;;;;;5109921;28;20031;-35
2024/01/08 02:55:21;;;;;;;0.82;0.70;;;21.90;41.90;;;;;;5118941;27;20031;-33
2024/01/08 02:57:47;;;;;;;0.70;0.70;;;21.80;41.90;;;;;;5117131;28;20519;-35
2024/01/08 03:00:14;;;;;;;0.63;0.63;;;21.80;42.00;;;;;;5117276;28;20091;-33
2024/01/08 03:02:40;;;;;;;1.33;0.90;;;21.80;42.00;;;;;;5109207;28;20047;-31
2024/01/08 03:05:07;;;;;;;0.77;0.70;;;21.90;42.00;;;;;;5110036;28;20032;-37
2024/01/08 03:07:33;;;;;;;2.33;0.70;;;21.90;41.90;;;;;;5111357;28;20054;-36
2024/01/08 03:09:59;;;;;;;0.77;0.70;;;21.80;41.90;;;;;;5111007;28;21135;-37
2024/01/08 03:12:26;;;;;;;0.80;0.80;;;21.80;42.00;;;;;;5110598;28;20035;-36
2024/01/08 03:14:52;;;;;;;1.25;0.90;;;21.80;42.00;;;;;;5113605;28;20032;-35
2024/01/08 03:17:18;;;;;;;1.00;0.90;;;21.80;42.00;;;;;;5098964;28;20020;-37
2024/01/08 03:19:45;;;;;;;0.80;0.73;;;21.80;41.90;;;;;;5121152;28;20058;-37
2024/01/08 03:22:11;;;;;;;2.20;0.88;;;21.90;42.00;;;;;;5115532;28;20020;-35
2024/01/08 03:24:37;;;;;;;0.82;0.70;;;21.80;41.90;;;;;;5117319;28;20027;-35
2024/01/08 03:27:04;;;;;;;0.82;0.70;;;21.80;42.00;;;;;;5112926;28;20039;-32
2024/01/08 03:29:30;;;;;;;2.33;0.93;;;21.80;42.00;;;;;;5091500;28;20052;-33
2024/01/08 03:31:56;;;;;;;1.10;1.00;;;21.80;42.00;;;;;;5109363;28;20089;-34
2024/01/08 03:34:23;;;;;;;1.77;1.05;;;21.80;42.10;;;;;;5109521;28;20080;-36
2024/01/08 03:36:50;;;;;;;2.67;0.88;;;21.80;41.90;;;;;;5105093;28;20060;-35
2024/01/08 03:39:17;;;;;;;2.72;0.93;;;21.80;41.90;;;;;;5108151;28;20020;-31
2024/01/08 03:41:43;;;;;;;3.08;0.85;;;21.70;41.90;;;;;;5117364;28;20104;-31
2024/01/08 03:44:10;;;;;;;1.75;0.80;;;21.70;42.00;;;;;;5116382;28;20047;-34
2024/01/08 03:46:39;;;;;;;1.03;0.93;;;21.70;42.00;;;;;;5108882;28;20028;-34
2024/01/08 03:49:07;;;;;;;2.20;0.70;;;21.80;41.90;;;;;;5105217;28;20058;-33
2024/01/08 03:51:34;;;;;;;1.10;0.80;;;21.80;41.90;;;;;;5113252;28;20048;-36
2024/01/08 03:54:00;;;;;;;0.93;0.80;;;21.70;41.90;;;;;;5115656;28;20028;-35
2024/01/08 03:56:27;;;;;;;1.88;1.02;;;21.70;42.00;;;;;;5116081;28;20949;-35
2024/01/08 03:58:53;;;;;;;2.60;0.85;;;21.70;42.00;;;;;;5111534;28;20032;-37
2024/01/08 04:01:19;;;;;;;1.65;0.98;;;21.70;41.90;;;;;;5116427;28;20091;-35
2024/01/08 04:03:45;;;;;;;1.10;0.90;;;21.80;41.90;;;;;;5111273;28;20024;-34
2024/01/08 04:06:11;;;;;;;1.02;0.93;;;21.80;41.80;;;;;;5114634;28;20020;-34
2024/01/08 04:08:37;;;;;;;1.17;1.05;;;21.70;41.80;;;;;;5118115;28;20037;-35
2024/01/08 04:11:04;;;;;;;1.10;0.80;;;21.70;41.90;;;;;;5116850;28;20039;-36
2024/01/08 04:13:31;;;;;;;1.52;1.20;;;21.70;41.90;;;;;;5112070;27;20038;-37
2024/01/08 04:15:57;;;;;;;1.38;1.02;;;21.70;41.90;;;;;;5122456;28;20081;-30
2024/01/08 04:18:23;;;;;;;1.00;0.90;;;21.80;41.80;;;;;;5114360;28;20032;-36
2024/01/08 04:20:50;;;;;;;1.08;0.98;;;21.80;41.80;;;;;;5122053;27;20023;-35
2024/01/08 04:23:16;;;;;;;1.30;1.20;;;21.70;41.80;;;;;;5089338;28;20451;-35
2024/01/08 04:25:42;;;;;;;1.00;0.90;;;21.70;41.90;;;;;;5117217;27;20087;-33
2024/01/08 04:28:08;;;;;;;0.93;0.90;;;21.70;41.90;;;;;;5116954;27;20044;-37
2024/01/08 04:30:35;;;;;;;1.08;0.98;;;21.70;41.90;;;;;;5117617;27;20502;-31
2024/01/08 04:33:01;;;;;;;0.77;0.77;;;21.80;42.00;;;;;;5114760;28;20206;-37
2024/01/08 04:35:27;;;;;;;1.15;0.88;;;21.80;41.90;;;;;;5115771;28;20032;-35
2024/01/08 04:37:53;;;;;;;2.03;0.80;;;21.70;42.50;;;;;;5103427;28;20034;-35
2024/01/08 04:40:20;;;;;;;1.52;1.00;;;21.70;42.00;;;;;;5107703;28;20020;-33
2024/01/08 04:42:46;;;;;;;1.23;1.00;;;21.70;41.90;;;;;;5117770;27;20142;-34
2024/01/08 04:45:12;;;;;;;1.05;0.90;;;21.70;41.80;;;;;;5118250;28;20027;-33
2024/01/08 04:47:39;;;;;;;1.48;1.10;;;21.70;41.70;;;;;;5121362;27;20023;-33
2024/01/08 04:50:05;;;;;;;1.20;1.00;;;21.70;41.70;;;;;;5114220;28;20086;-36
2024/01/08 04:52:31;;;;;;;1.45;0.93;;;21.70;41.80;;;;;;5111842;28;20036;-34
2024/01/08 04:54:58;;;;;;;1.30;1.00;;;21.60;41.80;;;;;;5122325;28;20035;-35
2024/01/08 04:57:24;;;;;;;1.15;0.90;;;21.70;41.80;;;;;;5119717;28;20028;-32
2024/01/08 04:59:50;;;;;;;1.35;1.15;;;21.70;41.70;;;;;;5113507;28;20369;-33
2024/01/08 05:02:16;;;;;;;0.88;0.88;;;21.70;41.70;;;;;;5107041;28;20020;-35
2024/01/08 05:04:42;;;;;;;2.25;0.80;;;21.70;41.70;;;;;;5121360;27;20520;-35
2024/01/08 05:07:12;;;;;;;0.98;0.88;;;21.60;41.70;;;;;;5115301;28;20053;-35
2024/01/08 05:09:38;;;;;;;2.75;1.00;;;21.60;41.70;;;;;;5100051;28;20068;-36
2024/01/08 05:12:04;;;;;;;1.30;1.10;;;21.70;41.70;;;;;;5108957;28;20063;-33
2024/01/08 05:14:30;;;;;;;2.60;1.10;;;21.70;41.60;;;;;;5109586;28;20020;-36
2024/01/08 05:16:56;;;;;;;1.10;1.00;;;21.70;41.60;;;;;;5121795;28;20031;-33
2024/01/08 05:19:23;;;;;;;2.63;1.00;;;21.70;41.60;;;;;;5113416;28;20012;-32
2024/01/08 05:21:49;;;;;;;0.95;0.88;;;21.60;41.70;;;;;;5121190;27;20020;-35
2024/01/08 05:24:15;;;;;;;0.95;0.90;;;21.60;41.70;;;;;;5121201;28;20088;-32
2024/01/08 05:27:02;;;;;;;1.20;1.10;;;21.70;41.70;;;;;;5119560;28;20023;-34
2024/01/08 05:29:28;;;;;;;1.95;1.10;;;21.70;41.60;;;;;;5061838;28;20036;-34
2024/01/08 05:31:54;;;;;;;1.10;0.98;;;21.70;41.60;;;;;;5045141;28;20076;-36
2024/01/08 05:34:20;;;;;;;1.38;0.90;;;21.60;41.60;;;;;;5059789;28;20043;-37
2024/01/08 05:36:46;;;;;;;1.55;1.23;;;21.60;41.60;;;;;;5061596;28;20040;-37
2024/01/08 05:39:12;;;;;;;1.95;1.10;;;21.60;41.70;;;;;;5059854;28;20028;-35
2024/01/08 05:41:41;;;;;;;1.17;1.00;;;21.70;41.60;;;;;;5057141;28;20490;-34
2024/01/08 05:44:08;;;;;;;0.93;0.90;;;21.70;41.50;;;;;;5044958;28;20029;-34
2024/01/08 05:46:35;;;;;;;1.50;1.13;;;21.70;41.60;;;;;;5062511;28;20041;-37
2024/01/08 05:49:01;;;;;;;1.70;1.10;;;21.60;41.60;;;;;;5061822;28;20514;-36
2024/01/08 05:51:30;;;;;;;2.10;0.90;;;21.60;41.60;;;;;;5061586;28;20074;-34
2024/01/08 05:53:56;;;;;;;1.50;1.15;;;21.60;41.50;;;;;;5038486;28;20061;-39
2024/01/08 05:56:22;;;;;;;1.08;0.98;;;21.70;41.50;;;;;;5062015;28;20060;-37
2024/01/08 05:58:48;;;;;;;1.55;1.02;;;21.70;41.50;;;;;;5060588;28;20017;-36
2024/01/08 06:01:15;;;;;;;1.38;1.00;;;21.60;41.50;;;;;;5061612;28;20037;-34
2024/01/08 06:03:41;;;;;;;1.17;0.95;;;21.60;41.50;;;;;;5059276;28;20036;-34
2024/01/08 06:06:07;;;;;;;1.23;1.00;;;21.60;41.50;;;;;;5054774;28;20112;-34
2024/01/08 06:08:33;;;;;;;1.10;1.00;;;21.60;41.40;;;;;;5117316;28;20026;-33
2024/01/08 06:10:59;;;;;;;1.05;0.93;;;21.70;41.40;;;;;;5113201;28;20044;-34
2024/01/08 06:13:26;;;;;;;1.40;1.10;;;21.70;41.40;;;;;;5115927;28;20034;-35
2024/01/08 06:15:52;;;;;;;2.55;0.90;;;21.60;41.40;;;;;;5115482;28;20109;-34
2024/01/08 06:18:18;;;;;;;1.40;1.10;;;21.60;41.50;;;;;;5115208;28;20024;-33
2024/01/08 06:20:44;;;;;;;1.15;1.05;;;21.60;41.40;;;;;;5118543;28;20031;-32
2024/01/08 06:23:10;;;;;;;1.05;0.85;;;21.60;41.40;;;;;;5121098;28;20806;-31
2024/01/08 06:25:36;;;;;;;1.55;1.20;;;21.70;41.40;;;;;;5114059;28;20051;-34
2024/01/08 06:28:03;;;;;;;1.27;0.90;;;21.60;41.40;;;;;;5115978;28;20035;-34
2024/01/08 06:30:29;;;;;;;1.88;1.25;;;21.60;41.40;;;;;;5114618;28;20043;-36
2024/01/08 06:32:55;;;;;;;1.23;1.13;;;21.60;41.40;;;;;;5121085;28;20039;-33
2024/01/08 06:35:22;;;;;;;1.40;1.30;;;21.60;41.40;;;;;;5121921;28;20100;-35
2024/01/08 06:37:48;;;;;;;2.92;1.38;;;21.60;41.30;;;;;;5118273;28;20043;-36
2024/01/08 06:40:14;;;;;;;1.50;1.25;;;21.60;41.40;;;;;;5112724;28;20890;-36
2024/01/08 06:42:40;;;;;;;1.45;1.08;;;21.60;41.40;;;;;;5115630;28;20024;-35
2024/01/08 06:45:06;;;;;;;1.45;1.15;;;21.60;41.40;;;;;;5115974;28;20028;-33
2024/01/08 06:47:33;;;;;;;1.20;1.10;;;21.60;41.40;;;;;;5115231;28;20039;-35
2024/01/08 06:49:59;;;;;;;1.83;1.20;;;21.60;41.40;;;;;;5115641;28;20353;-36
2024/01/08 06:52:25;;;;;;;2.75;1.10;;;21.70;41.30;;;;;;5116433;28;20035;-34
2024/01/08 06:54:51;;;;;;;2.33;1.13;;;21.60;41.30;;;;;;5110106;28;20024;-36
2024/01/08 06:57:18;;;;;;;2.78;1.10;;;21.60;41.40;;;;;;5115414;27;20061;-30
2024/01/08 06:59:44;;;;;;;1.20;1.02;;;21.60;41.50;;;;;;5107278;28;20052;-31
2024/01/08 07:02:10;;;;;;;1.40;1.20;;;21.60;41.40;;;;;;5110823;28;20027;-31
2024/01/08 07:04:36;;;;;;;0.90;0.82;;;21.60;41.40;;;;;;5110842;28;20032;-37
2024/01/08 07:07:02;;;;;;;1.30;1.20;;;21.60;41.30;;;;;;5115753;28;20055;-37
2024/01/08 07:09:28;;;;;;;1.17;0.90;;;21.60;41.40;;;;;;5095490;28;20443;-36
2024/01/08 07:11:54;;;;;;;1.98;1.08;;;21.60;41.40;;;;;;5107577;28;20042;-35
2024/01/08 07:14:21;;;;;;;2.92;1.50;;;21.50;41.40;;;;;;5109841;28;20050;-35
2024/01/08 07:16:47;;;;;;;4.63;1.27;;;21.50;41.30;;;;;;5108992;28;20035;-37
2024/01/08 07:19:13;;;;;;;1.92;1.20;;;21.60;41.50;;;;;;5110116;28;20024;-36
2024/01/08 07:21:39;;;;;;;3.85;1.20;;;21.60;41.50;;;;;;5112907;28;20019;-34
2024/01/08 07:24:05;;;;;;;1.85;1.45;;;21.60;41.40;;;;;;5107800;28;20027;-34
2024/01/08 07:26:31;;;;;;;2.33;1.40;;;21.60;41.50;;;;;;5112136;28;20028;-33
2024/01/08 07:28:58;;;;;;;2.53;1.30;;;21.50;41.60;;;;;;5114674;28;20035;-31
2024/01/08 07:31:24;;;;;;;5.35;1.27;;;21.50;41.60;;;;;;5110463;28;20047;-36
2024/01/08 07:33:50;;;;;;;2.45;1.10;;;21.60;41.50;;;;;;5110597;28;20494;-37
2024/01/08 07:36:16;;;;;;;1.40;1.20;;;21.60;41.40;;;;;;5112364;28;20051;-35
2024/01/08 07:38:42;;;;;;;3.13;1.17;;;21.60;41.40;;;;;;5118428;28;20015;-36
2024/01/08 07:41:08;;;;;;;1.63;1.30;;;21.50;41.40;;;;;;5108553;28;20028;-34
2024/01/08 07:43:37;;;;;;;2.65;1.30;;;21.50;41.50;;;;;;5117631;28;20055;-34
2024/01/08 07:46:03;;;;;;;1.73;1.42;;;21.50;41.40;;;;;;5108762;28;20032;-37
2024/01/08 07:48:29;;;;;;;3.45;1.10;;;21.60;41.40;;;;;;5111867;28;20024;-36
2024/01/08 07:50:56;;;;;;;1.75;1.30;;;21.60;41.40;;;;;;5110677;28;20059;-36
2024/01/08 07:53:22;;;;;;;1.40;1.23;;;21.60;41.40;;;;;;5120111;28;20032;-34
2024/01/08 07:55:49;;;;;;;3.03;1.20;;;21.60;41.60;;;;;;5111262;28;20057;-36
2024/01/08 07:58:15;;;;;;;;;;;21.60;41.50;;;;;;5122438;28;20023;-35
2024/01/08 08:00:42;;;;;;;1.20;1.10;;;21.60;41.50;;;;;;5120452;28;19982;-36
2024/01/08 08:03:08;;;;;;;1.55;1.08;;;21.60;41.40;;;;;;5127131;28;20043;-36
2024/01/08 08:05:34;;;;;;;1.63;1.40;;;21.60;41.40;;;;;;5115035;28;20743;-35
2024/01/08 08:08:01;;;;;;;1.63;1.07;;;21.60;41.40;;;;;;5120376;28;20028;-32
2024/01/08 08:10:27;;;;;;;1.55;1.25;;;21.50;41.40;;;;;;5121157;28;20023;-34
2024/01/08 08:12:54;;;;;;;1.60;1.20;;;21.50;41.40;;;;;;5112852;28;20047;-34
2024/01/08 08:15:20;;;;;;;1.83;1.30;;;21.60;41.40;;;;;;5114566;28;20476;-35
2024/01/08 08:17:46;;;;;;;1.05;0.80;;;21.60;41.30;;;;;;5114040;28;20036;-34
2024/01/08 08:20:12;;;;;;;1.55;1.17;;;21.60;41.20;;;;;;5122081;28;20044;-35
2024/01/08 08:22:39;;;;;;;1.60;1.33;;;21.50;41.30;;;;;;5121627;28;20023;-34
2024/01/08 08:25:05;;;;;;;1.40;1.17;;;21.50;41.40;;;;;;5112250;28;20141;-39
2024/01/08 08:27:32;;;;;;;1.90;1.10;;;21.50;41.40;;;;;;5110342;28;20483;-36
2024/01/08 08:29:58;;;;;;;1.33;1.20;;;21.60;41.30;;;;;;5118880;28;20059;-36
2024/01/08 08:32:25;;;;;;;1.98;1.40;;;21.60;41.20;;;;;;5105966;28;20042;-35
2024/01/08 08:34:51;;;;;;;3.33;1.50;;;21.60;41.20;;;;;;5110104;28;20028;-32
2024/01/08 08:37:17;;;;;;;2.22;1.13;;;21.50;41.20;;;;;;5115854;28;20027;-34
2024/01/08 08:39:43;;;;;;;1.33;1.23;;;21.50;41.30;;;;;;5120653;27;20031;-34
2024/01/08 08:42:09;;;;;;;2.33;1.67;;;21.50;41.10;;;;;;5114924;27;20024;-33
2024/01/08 08:44:37;;;;;;;1.77;1.38;;;21.60;41.10;;;;;;5114100;28;20036;-35
2024/01/08 08:47:03;;;;;;;2.28;1.35;;;21.60;41.10;;;;;;5113643;28;20611;-35
2024/01/08 08:49:29;;;;;;;2.10;1.20;;;21.50;41.10;;;;;;5117953;28;20035;-36
2024/01/08 08:51:55;;;;;;;1.73;1.33;;;21.50;41.20;;;;;;5113490;28;20051;-36
2024/01/08 08:54:21;;;;;;;1.70;1.20;;;21.50;41.10;;;;;;5113334;28;20030;-32
2024/01/08 08:56:48;;;;;;;1.70;1.33;;;21.60;41.10;;;;;;5123898;28;20089;-31
2024/01/08 08:59:14;;;;;;;3.03;1.50;;;21.60;41.00;;;;;;5116794;28;20020;-35
2024/01/08 09:01:40;;;;;;;2.53;1.60;;;21.60;41.00;;;;;;5110674;28;20028;-36
2024/01/08 09:04:07;;;;;;;1.55;1.35;;;21.50;41.10;;;;;;5111546;27;20165;-35
2024/01/08 09:06:34;;;;;;;1.80;1.40;;;21.50;41.10;;;;;;5118693;28;20038;-35
2024/01/08 09:09:01;;;;;;;2.83;1.80;;;21.50;41.20;;;;;;5113805;28;20493;-31
2024/01/08 09:11:27;;;;;;;4.70;1.53;;;21.60;41.10;;;;;;5112004;27;20485;-36
2024/01/08 09:13:54;;;;;;;2.05;1.65;;;21.60;41.10;;;;;;5115573;28;20444;-35
2024/01/08 09:16:21;;;;;;;1.98;1.48;;;21.50;41.00;;;;;;5116543;28;20036;-34
2024/01/08 09:18:47;;;;;;;;;;;21.50;41.10;;;;;;5123987;28;20081;-34
2024/01/08 09:21:13;;;;;;;1.63;1.38;;;21.50;41.10;;;;;;5110254;28;19908;-36
2024/01/08 09:23:43;;;;;;;1.30;1.20;;;21.50;41.10;;;;;;5096443;28;20660;-35
2024/01/08 09:26:10;;;;;;;2.65;1.58;;;21.60;41.10;;;;;;5112538;28;20031;-36
2024/01/08 09:28:36;;;;;;;2.17;1.52;;;21.60;41.10;;;;;;5105701;28;20443;-36
2024/01/08 09:31:03;;;;;;;1.88;1.52;;;21.50;41.10;;;;;;5115381;28;20044;-36
2024/01/08 09:33:30;;;;;;;1.88;1.63;;;21.50;41.20;;;;;;5116397;28;20015;-34
2024/01/08 09:35:56;;;;;;;3.77;1.33;;;21.50;41.20;;;;;;5120652;28;20047;-36
2024/01/08 09:38:22;;;;;;;2.15;1.70;;;21.50;41.20;;;;;;5111455;28;20100;-36
2024/01/08 09:40:49;;;;;;;2.67;1.63;;;21.60;41.20;;;;;;5110389;28;20023;-35
2024/01/08 09:43:15;;;;;;;2.30;1.47;;;21.60;41.20;;;;;;5120665;28;20028;-34
2024/01/08 09:45:54;;;;;;;1.63;1.30;;;21.50;41.10;;;;;;5116077;28;20028;-37
2024/01/08 09:48:20;;;;;;;2.30;1.60;;;21.50;41.00;;;;;;5108450;28;20031;-36
2024/01/08 09:50:46;;;;;;;1.90;1.55;;;21.50;41.30;;;;;;5108594;28;20138;-33
2024/01/08 09:53:12;;;;;;;2.72;1.85;;;21.60;41.20;;;;;;5089503;28;20110;-33
2024/01/08 09:55:38;;;;;;;4.32;1.63;;;21.60;41.20;;;;;;5107095;28;20035;-35
2024/01/08 09:58:06;;;;;;;3.20;1.80;;;21.50;41.10;;;;;;5127189;27;20156;-36
2024/01/08 10:00:33;;;;;;;2.25;1.83;;;21.50;41.80;;;;;;5095677;28;20024;-32
2024/01/08 10:02:59;;;;;;;1.90;1.40;;;21.50;41.10;;;;;;5111288;27;20034;-32
2024/01/08 10:05:30;;;;;;;1.83;1.50;;;21.50;41.10;;;;;;5117903;27;20107;-34
2024/01/08 10:08:00;;;;;;;2.58;1.85;;;21.50;41.10;;;;;;5111617;28;20158;-34
2024/01/08 10:10:28;;;;;;;1.45;1.33;;;21.50;41.00;;;;;;5110336;28;20028;-36
2024/01/08 10:12:54;;;;;;;2.45;1.58;;;21.50;41.10;;;;;;5091572;28;20363;-35
2024/01/08 10:15:21;;;;;;;2.80;2.15;;;21.50;41.20;;;;;;5119282;28;20027;-34
2024/01/08 10:17:51;;;;;;;3.42;1.98;;;21.50;41.10;;;;;;5110232;28;20032;-34
2024/01/08 10:20:17;;;;;;;2.38;1.98;;;21.50;41.10;;;;;;5117413;28;20028;-34
2024/01/08 10:22:47;;;;;;;2.03;1.65;;;21.50;41.10;;;;;;5112747;28;20080;-33
2024/01/08 10:25:22;;;;;;;1.85;1.55;;;21.50;41.00;;;;;;5118470;28;20034;-33
2024/01/08 10:27:49;;;;;;;2.53;1.90;;;21.50;41.10;;;;;;5113018;28;20048;-33
2024/01/08 10:30:15;;;;;;;2.47;1.70;;;21.50;41.10;;;;;;5114633;28;20027;-34
2024/01/08 10:32:41;;;;;;;2.92;1.15;;;21.50;41.10;;;;;;5114552;27;20582;-34
2024/01/08 10:35:08;;;;;;;2.60;1.85;;;21.50;41.00;;;;;;5088257;28;20028;-35
2024/01/08 10:37:35;;;;;;;2.60;2.00;;;21.50;41.00;;;;;;5093719;28;20175;-33
2024/01/08 10:40:01;;;;;;;1.70;1.60;;;21.50;41.10;;;;;;5089735;28;20054;-35
2024/01/08 10:42:29;;;;;;;2.40;1.70;;;21.50;41.20;;;;;;5113312;28;20095;-32
2024/01/08 10:44:55;;;;;;;2.00;1.55;;;21.50;41.10;;;;;;5115179;27;20046;-35
2024/01/08 10:47:23;;;;;;;1.98;1.70;;;21.50;41.10;;;;;;5117298;28;20086;-35
2024/01/08 10:49:51;;;;;;;2.38;1.77;;;21.50;41.00;;;;;;5113121;28;20042;-34
2024/01/08 10:52:27;;;;;;;3.17;1.80;;;21.50;41.00;;;;;;5111780;28;20034;-36
2024/01/08 10:54:57;;;;;;;2.50;1.90;;;21.50;41.00;;;;;;5119759;28;20035;-36
2024/01/08 10:57:42;;;;;;;1.80;1.60;;;21.50;41.10;;;;;;5108938;28;20107;-36
2024/01/08 11:00:12;;;;;;;2.60;1.77;;;21.50;41.10;;;;;;5094038;28;20035;-34
2024/01/08 11:02:39;;;;;;;3.33;2.00;;;21.50;41.00;;;;;;5085215;28;20028;-35
2024/01/08 11:05:07;;;;;;;2.30;1.77;;;21.50;40.90;;;;;;5095397;28;20016;-35
2024/01/08 11:07:36;;;;;;;3.63;1.92;;;21.50;40.90;;;;;;5112364;28;20028;-36
2024/01/08 11:10:04;;;;;;;2.50;1.80;;;21.50;41.00;;;;;;5091723;28;20032;-34
2024/01/08 11:12:31;;;;;;;2.50;1.60;;;21.50;41.10;;;;;;5111389;28;20057;-40
2024/01/08 11:15:04;;;;;;;2.10;1.80;;;21.50;41.00;;;;;;5110292;28;20036;-34
2024/01/08 11:17:30;;;;;;;2.80;2.15;;;21.60;40.90;;;;;;5116251;28;20095;-34
2024/01/08 11:19:58;;;;;;;2.63;1.90;;;21.50;40.90;;;;;;5110098;28;20024;-35
2024/01/08 11:22:24;;;;;;;2.30;1.80;;;21.50;41.00;;;;;;5093248;28;20019;-37
2024/01/08 11:24:50;;;;;;;2.80;2.05;;;21.50;41.00;;;;;;5111474;28;20047;-33
2024/01/08 11:27:17;;;;;;;1.85;1.60;;;21.50;40.90;;;;;;5124363;27;20020;-36
2024/01/08 11:29:55;;;;;;;3.08;2.17;;;21.50;40.90;;;;;;5117587;28;20388;-37
2024/01/08 11:32:40;;;;;;;3.75;2.20;;;21.50;40.80;;;;;;5112571;28;20100;-35
2024/01/08 11:35:10;;;;;;;2.55;1.88;;;21.50;40.90;;;;;;5086175;28;20089;-36
2024/01/08 11:37:41;;;;;;;2.92;2.10;;;21.50;41.00;;;;;;5111935;28;20027;-35
2024/01/08 11:40:17;;;;;;;3.83;2.35;;;21.50;40.90;;;;;;5106865;28;20016;-35
2024/01/08 11:42:44;;;;;;;3.63;2.55;;;21.50;40.90;;;;;;5109655;28;20081;-34
2024/01/08 11:45:10;;;;;;;3.65;2.25;;;21.50;40.80;;;;;;5094305;28;20020;-37
2024/01/08 11:47:37;;;;;;;3.17;2.17;;;21.50;40.80;;;;;;5110062;28;20546;-35
2024/01/08 11:50:05;;;;;;;3.50;2.45;;;21.50;40.90;;;;;;5113807;28;20024;-36
2024/01/08 11:52:32;;;;;;;3.25;2.20;;;21.50;41.10;;;;;;5110706;28;20065;-37
2024/01/08 11:54:59;;;;;;;3.00;2.25;;;21.50;40.90;;;;;;5091588;28;20024;-36
2024/01/08 11:57:25;;;;;;;3.08;2.20;;;21.50;40.90;;;;;;5105186;28;20056;-32
2024/01/08 11:59:52;;;;;;;3.93;2.40;;;21.60;40.90;;;;;;5092951;28;20023;-33
2024/01/08 12:02:27;;;;;;;4.10;2.22;;;21.60;40.80;;;;;;5107713;28;20036;-37
2024/01/08 12:04:53;;;;;;;2.88;2.08;;;21.50;40.80;;;;;;5110911;28;20051;-36
2024/01/08 12:07:19;;;;;;;3.55;2.20;;;21.50;41.00;;;;;;5112069;28;20020;-34
2024/01/08 12:09:47;;;;;;;3.30;2.35;;;21.50;40.90;;;;;;5112074;28;20028;-36
2024/01/08 12:12:15;;;;;;;3.20;2.00;;;21.50;40.80;;;;;;5124340;28;20077;-35
2024/01/08 12:14:42;;;;;;;3.00;2.30;;;21.50;40.70;;;;;;5117259;28;20024;-36
2024/01/08 12:17:08;;;;;;;2.40;1.90;;;21.60;40.70;;;;;;5094762;28;20055;-35
2024/01/08 12:19:53;;;;;;;2.70;2.05;;;21.50;40.80;;;;;;5100469;28;20036;-35
2024/01/08 12:22:20;;;;;;;2.42;2.00;;;21.50;40.70;;;;;;5115631;28;20665;-35
2024/01/08 12:24:50;;;;;;;1.73;1.60;;;21.50;40.70;;;;;;5112707;28;20020;-34
2024/01/08 12:27:20;;;;;;;3.50;2.42;;;21.50;40.70;;;;;;5095720;28;20034;-34
2024/01/08 12:29:49;;;;;;;2.53;1.80;;;21.50;40.70;;;;;;5109618;28;20024;-35
2024/01/08 12:32:17;;;;;;;2.53;1.75;;;21.50;40.70;;;;;;5120168;28;20039;-35
2024/01/08 12:34:43;;;;;;;2.67;2.08;;;21.50;40.80;;;;;;5111281;28;20167;-33
2024/01/08 12:37:11;;;;;;;3.13;2.03;;;21.50;40.80;;;;;;5117900;28;20058;-34
2024/01/08 12:39:38;;;;;;;2.33;1.67;;;21.50;40.70;;;;;;5110359;28;20020;-37
2024/01/08 12:42:08;;;;;;;2.78;2.22;;;21.50;40.60;;;;;;5113353;28;20910;-32
2024/01/08 12:44:35;;;;;;;3.70;2.10;;;21.50;41.20;;;;;;5123255;27;20028;-35
2024/01/08 12:47:03;;;;;;;2.92;2.00;;;21.50;40.70;;;;;;5092304;28;20096;-34